Flight Track Log - Related Links

Times and Time Zones

All times are in EDT time to prevent confusion due to time zone crossing. See the ASQ6151 flight status page for this flight to view local times or setup timezone preferences in your user account.

Time Position Orientation Groundspeed Altitude Reporting Facility
EDT Latitude Longitude Course Direction KTS MPH feet Rate Location/Type
Sat 10:05:01 AM 36.1936 -80.1100 308° West 304 350 9,100  Level Atlanta Center
Sat 10:06:01 AM 36.2400 -80.1978 303° West 317 365 10,900 1,250 Climbing Atlanta Center
Sat 10:07:00 AM 36.4288 -80.5243 302° West  Level FlightAware Approximate
Sat 10:07:01 AM 36.2953 -80.2983 304° West 322 371 11,600  Level Atlanta Center
Sat 10:08:00 AM 36.4800 -80.6267 302° West  Level FlightAware Approximate
Sat 10:08:01 AM 36.3525 -80.3989 305° West 342 394 12,900  Level Atlanta Center
Sat 10:09:00 AM 36.5397 -80.7216 307° West  Level FlightAware Approximate
Sat 10:09:01 AM 36.4119 -80.5069 304° West 364 419 14,400  Level Atlanta Center
Sat 10:10:00 AM 36.5906 -80.8208 308° West  Level FlightAware Approximate
Sat 10:10:01 AM 36.4711 -80.6078 306° West 391 450 15,500  Level Atlanta Center
Sat 10:11:01 AM 36.5306 -80.7161 304° West 391 450 16,500 1,050 Climbing Atlanta Center
Sat 10:12:01 AM 36.5981 -80.8244 308° West 396 456 17,600 900 Climbing Atlanta Center
Sat 10:13:01 AM 36.6722 -80.9483 307° West 401 461 18,300 950 Climbing Atlanta Center
Sat 10:14:01 AM 36.7417 -81.0622 307° West 406 467 19,500 1,050 Climbing Atlanta Center
Sat 10:15:01 AM 36.8089 -81.1764 306° West 405 466 20,400 900 Climbing Atlanta Center
Sat 10:16:01 AM 36.8806 -81.2933 307° West 411 473 21,300 796 Climbing Atlanta Center
Sat 10:18:02 AM 37.0297 -81.5294 308° West 435 501 22,800 1,187 Climbing Indianapolis Center
Sat 10:19:03 AM 37.1017 -81.6472 307° West 427 491 24,900 1,512 Climbing Indianapolis Center
Sat 10:20:05 AM 37.1700 -81.7600 307° West 411 473 25,900 1,016 Climbing Indianapolis Center
Sat 10:21:07 AM 37.2383 -81.8753 307° West 412 474 27,000 1,122 Climbing Indianapolis Center
Sat 10:22:08 AM 37.3067 -81.9875 307° West 408 470 28,200 1,220 Climbing Indianapolis Center
Sat 10:23:10 AM 37.3847 -82.1192 307° West 405 466 29,500 1,073 Climbing Indianapolis Center
Sat 10:24:11 AM 37.4519 -82.2325 307° West 403 464 30,400 878 Climbing Indianapolis Center
Sat 10:25:13 AM 37.5208 -82.3492 307° West 414 476 31,300 829 Climbing Indianapolis Center
Sat 10:26:14 AM 37.5908 -82.4664 307° West 418 481 32,100 829 Climbing Indianapolis Center
Sat 10:27:16 AM 37.6606 -82.5858 306° West 423 487 33,000 871 Climbing Indianapolis Center
Sat 10:28:18 AM 37.7322 -82.7072 307° West 430 495 33,900 927 Climbing Indianapolis Center
Sat 10:29:19 AM 37.8150 -82.8486 307° West 430 495 34,900 685 Climbing Indianapolis Center
Sat 10:31:22 AM 37.9556 -83.0917 306° West 428 493 36,000 357 Climbing Indianapolis Center
Sat 10:32:24 AM 38.0294 -83.2194 306° West 445 512 36,000  Level Indianapolis Center
Sat 10:33:25 AM 38.1061 -83.3531 306° West 462 532 36,000  Level Indianapolis Center
Sat 10:34:27 AM 38.1853 -83.4889 307° West 477 549 36,000  Level Indianapolis Center
Sat 10:35:28 AM 38.2450 -83.6397 297° West 485 558 36,000  Level Indianapolis Center
Sat 10:36:30 AM 38.2922 -83.8253 288° West 476 548 36,000  Level Indianapolis Center
Sat 10:37:31 AM 38.3319 -83.9806 288° West 465 535 36,000  Level Indianapolis Center
Sat 10:38:32 AM 38.3733 -84.1328 289° West 458 527 36,000  Level Indianapolis Center
Sat 10:39:34 AM 38.4214 -84.2847 292° West 464 534 36,000  Level Indianapolis Center
Sat 10:40:35 AM 38.5350 -84.3775 327° Northwest 481 554 36,000  Level Indianapolis Center
Sat 10:41:37 AM 38.6606 -84.4586 333° Northwest 489 563 36,000  Level Indianapolis Center
Sat 10:42:38 AM 38.7742 -84.5342 333° Northwest 492 566 36,000  Level Indianapolis Center
Sat 10:43:40 AM 38.8950 -84.6108 334° Northwest 485 558 36,000  Level Indianapolis Center
Sat 10:44:41 AM 39.0267 -84.6964 333° Northwest 482 555 36,000 -49 Level Indianapolis Center
Sat 10:45:42 AM 39.1475 -84.7769 333° Northwest 481 554 35,900 -1,220 Descending Indianapolis Center
Sat 10:46:44 AM 39.2675 -84.8561 333° Northwest 482 555 33,500 -2,634 Descending Indianapolis Center
Sat 10:47:45 AM 39.3925 -84.9375 333° Northwest 478 550 30,500 -2,878 Descending Indianapolis Center
Sat 10:48:47 AM 39.5097 -85.0156 333° Northwest 477 549 27,600 -2,195 Descending Indianapolis Center
Sat 10:49:48 AM 39.6228 -85.0908 333° Northwest 466 536 26,000 -780 Descending Indianapolis Center
Sat 10:50:50 AM 39.7344 -85.1636 333° Northwest 457 526 26,000  Level Indianapolis Center
Sat 10:51:51 AM 39.8672 -85.2533 333° Northwest 453 521 26,000  Level Indianapolis Center
Sat 10:52:53 AM 39.9769 -85.3275 333° Northwest 449 517 26,000  Level Indianapolis Center
Sat 10:53:54 AM 40.0922 -85.4053 333° Northwest 464 534 26,000  Level Indianapolis Center
Sat 10:54:26 AM 40.1611 -85.4519 333° Northwest 469 540 26,000  Level Chicago Center
Sat 10:55:28 AM 40.2783 -85.5306 333° Northwest 476 548 26,000 -439 Level Chicago Center
Sat 10:56:29 AM 40.3764 -85.6436 319° Northwest 478 550 25,100 -927 Descending Chicago Center
Sat 10:57:31 AM 40.4594 -85.7722 310° West 468 539 24,100 -537 Descending Chicago Center
Sat 10:58:32 AM 40.5386 -85.8942 311° West 448 516 24,000 -146 Descending Chicago Center
Sat 10:59:34 AM 40.6189 -86.0158 311° West 445 512 23,800 -634 Descending Chicago Center
Sat 11:00:35 AM 40.7092 -86.1567 310° West 463 533 22,700 -1,026 Descending Chicago Center
Sat 11:02:06 AM 40.8281 -86.3428 310° West 435 501 21,200 -968 Descending Indianapolis Center
Sat 11:02:39 AM 40.8653 -86.4022 310° West 429 494 20,700 -957 Descending Chicago Center
Sat 11:03:40 AM 40.9417 -86.5197 311° West 424 488 19,700 -1,073 Descending Chicago Center
Sat 11:04:42 AM 41.0356 -86.6703 310° West 440 506 18,500 -1,024 Descending Chicago Center
Sat 11:05:43 AM 41.1158 -86.7956 310° West 434 499 17,600 -1,171 Descending Chicago Center
Sat 11:06:45 AM 41.1919 -86.9164 310° West 429 494 16,100 -2,049 Descending Chicago Center
Sat 11:07:46 AM 41.2650 -87.0325 310° West 416 479 13,400 -2,146 Descending Chicago Center
Sat 11:08:48 AM 41.3339 -87.1436 310° West 401 461 11,700 -1,045 Descending Chicago Center
Sat 11:09:58 AM 41.4333 -87.2667 317° Northwest 366 421 11,100 -305 Descending Chicago TRACON
Sat 11:10:46 AM 41.4833 -87.3333 315° West 373 429 11,100  Level Chicago TRACON
Sat 11:11:40 AM 41.5667 -87.4167 323° Northwest 380 437 11,100  Level Chicago TRACON
Sat 11:12:40 AM 41.6500 -87.5167 318° Northwest 386 444 11,100 -200 Level Chicago TRACON
Sat 11:13:40 AM 41.7167 -87.6000 317° Northwest 354 407 10,700 -474 Descending Chicago TRACON
Sat 11:13:56 AM 41.7353 -87.6172 325° Northwest 360 414 10,500 -1,222 Descending Chicago Center
Sat 11:14:34 AM 41.7833 -87.6667 323° Northwest 307 353 9,600 -1,408 Descending Chicago TRACON
Sat 11:15:34 AM 41.8500 -87.7500 317° Northwest 306 352 8,200 -1,316 Descending Chicago TRACON
Sat 11:16:28 AM 41.8667 -87.8333 285° West 284 327 7,100 -1,053 Descending Chicago TRACON
Sat 11:17:28 AM 41.8333 -87.9167 242° Southwest 244 281 6,200 -1,149 Descending Chicago TRACON
Sat 11:18:02 AM 41.8197 -87.9575 246° West 245 282 5,300 -1,313 Descending Chicago Center
Sat 11:19:04 AM 41.7817 -88.0186 230° Southwest 234 269 4,100 -683 Descending Chicago Center
Sat 11:20:05 AM 41.8269 -88.0439 337° Northwest 209 241 3,900 -537 Descending Chicago Center
Sat 11:21:07 AM 41.8669 -88.0047 36° Northeast 189 217 3,000 -927 Descending Chicago Center
Sat 11:22:08 AM 41.9033 -87.9597 43° Northeast 181 208 2,000 -878 Descending Chicago Center
Sat 11:23:10 AM 41.9347 -87.9222 42° Northeast 168 193 1,200 -774 Descending Chicago Center
Sat 11:25:00 AM 41.9667 -87.9000 312° West  Level FlightAware Approximate

Login

Don't have an account? Register now (free) for customized features, flight alerts, and more!